Time;durP1;ratioP1;P1;durP2;ratioP2;P2;SDS_P1;SDS_P2;PMS_P1;PMS_P2;Temp;Humidity;BMP_temperature;BMP_pressure;BME280_temperature;BME280_humidity;BME280_pressure;Samples;Min_cycle;Max_cycle;Signal;HPM_P1;HPM_P2
2022/01/12 07:59:18;;;;;;;46.47;29.90;;;;;;;2.95;94.14;103729.66;5280337;28;20390;-73
2022/01/12 08:01:49;;;;;;;45.55;30.60;;;;;;;2.98;94.68;103732.91;5264920;28;20028;-75
2022/01/12 08:04:21;;;;;;;44.95;30.23;;;;;;;3.05;95.26;103739.44;5274684;28;20415;-76
2022/01/12 08:06:52;;;;;;;42.40;29.33;;;;;;;3.09;95.15;103745.44;5263088;28;20127;-76
2022/01/12 08:09:29;;;;;;;39.42;28.60;;;;;;;3.23;94.34;103750.25;5270995;28;20472;-77
2022/01/12 08:12:00;;;;;;;44.88;29.90;;;;;;;3.29;94.99;103750.63;5269977;28;20047;-81
2022/01/12 08:14:32;;;;;;;45.65;30.17;;;;;;;3.31;94.18;103759.53;5272331;28;20021;-79
2022/01/12 08:17:04;;;;;;;42.15;29.77;;;;;;;3.34;93.64;103765.53;5263019;28;20469;-79
2022/01/12 08:19:37;;;;;;;45.20;29.10;;;;;;;3.11;94.11;103765.31;5257974;28;20040;-80
2022/01/12 08:22:09;;;;;;;54.45;31.73;;;;;;;3.16;94.73;103773.06;5267358;28;20044;-79
2022/01/12 08:24:40;;;;;;;48.70;31.88;;;;;;;3.05;94.77;103772.34;5274464;28;20125;-79
2022/01/12 08:27:11;;;;;;;50.65;32.10;;;;;;;3.10;95.50;103769.09;5263047;28;20020;-79
2022/01/12 08:29:43;;;;;;;59.00;32.47;;;;;;;3.15;95.33;103771.34;5271192;28;20368;-80
2022/01/12 08:32:14;;;;;;;58.88;35.85;;;;;;;3.13;96.08;103778.88;5270910;28;20024;-78
2022/01/12 08:34:46;;;;;;;62.88;34.28;;;;;;;3.02;96.77;103783.66;5262080;28;20013;-79
2022/01/12 08:37:17;;;;;;;62.42;33.97;;;;;;;3.03;97.64;103776.28;5274585;28;20123;-79
2022/01/12 08:39:51;;;;;;;54.08;34.22;;;;;;;3.23;97.04;103768.63;5267347;28;20024;-78
2022/01/12 08:42:22;;;;;;;59.47;34.88;;;;;;;3.37;96.89;103776.16;5262924;28;20025;-82
2022/01/12 08:44:53;;;;;;;62.13;34.08;;;;;;;3.41;96.99;103771.22;5273118;28;20055;-80
2022/01/12 08:47:26;;;;;;;54.13;34.00;;;;;;;3.52;96.17;103780.97;5264038;28;20028;-80
2022/01/12 08:49:57;;;;;;;68.75;34.28;;;;;;;3.56;96.10;103774.13;5268801;28;20092;-80
2022/01/12 08:52:30;;;;;;;66.05;35.85;;;;;;;3.59;96.11;103779.28;5255883;28;20028;-82
2022/01/12 08:55:02;;;;;;;64.85;35.63;;;;;;;3.67;95.86;103779.25;5272420;28;20413;-78
2022/01/12 08:57:33;;;;;;;62.85;36.63;;;;;;;3.66;95.75;103769.31;5271297;28;20046;-78
2022/01/12 09:00:06;;;;;;;65.13;38.15;;;;;;;3.75;96.12;103779.25;5269224;28;20103;-78
2022/01/12 09:02:39;;;;;;;55.65;34.15;;;;;;;3.83;95.85;103781.13;5263447;28;20489;-77
2022/01/12 09:05:11;;;;;;;66.68;34.35;;;;;;;3.72;95.38;103790.59;5262243;28;20036;-77
2022/01/12 09:07:43;;;;;;;64.90;38.97;;;;;;;3.91;96.17;103783.88;5255400;28;20476;-77
2022/01/12 09:10:15;;;;;;;57.88;33.03;;;;;;;3.87;95.67;103793.50;5253367;28;20036;-73
2022/01/12 09:12:46;;;;;;;74.85;34.58;;;;;;;3.65;95.56;103804.13;5247036;28;20021;-75
2022/01/12 09:15:22;;;;;;;58.72;34.35;;;;;;;3.62;96.50;103811.84;5252478;28;20349;-76
2022/01/12 09:17:54;;;;;;;63.55;34.22;;;;;;;3.49;97.19;103818.69;5238880;28;20068;-75
2022/01/12 09:20:28;;;;;;;70.45;36.70;;;;;;;3.47;98.38;103818.00;5254030;28;20480;-75
2022/01/12 09:22:59;;;;;;;64.70;36.80;;;;;;;3.47;99.26;103826.25;5247878;28;20025;-73
2022/01/12 09:25:35;;;;;;;63.72;36.15;;;;;;;3.59;99.36;103829.53;5251896;28;20071;-72
2022/01/12 09:28:06;;;;;;;;;;;;;;;3.74;100.00;103818.72;5246293;28;20423;-73
2022/01/12 09:30:38;;;;;;;65.93;36.10;;;;;;;3.77;100.00;103823.03;5249328;28;19917;-73
2022/01/12 09:33:12;;;;;;;60.70;33.35;;;;;;;3.77;98.98;103837.59;5259613;28;20031;-75
2022/01/12 09:35:46;;;;;;;56.45;31.17;;;;;;;3.69;98.45;103846.69;5251483;28;20052;-73
2022/01/12 09:38:19;;;;;;;66.68;32.22;;;;;;;3.78;98.46;103844.78;5251535;28;20040;-74
2022/01/12 09:40:53;;;;;;;61.05;32.90;;;;;;;3.75;98.38;103845.13;5247157;28;20030;-74
2022/01/12 09:43:28;;;;;;;67.70;32.75;;;;;;;3.77;98.27;103839.50;5240128;28;20385;-73
2022/01/12 09:46:00;;;;;;;63.83;31.40;;;;;;;3.81;98.60;103844.47;5252844;28;20025;-73
2022/01/12 09:48:34;;;;;;;57.13;30.75;;;;;;;3.82;98.86;103848.94;5249213;28;20350;-73
2022/01/12 09:51:07;;;;;;;54.35;28.80;;;;;;;3.79;98.53;103843.78;5259075;28;20381;-73
2022/01/12 09:53:39;;;;;;;68.68;31.02;;;;;;;3.84;98.71;103844.13;5253960;28;20032;-73
2022/01/12 09:56:21;;;;;;;57.17;28.77;;;;;;;3.84;98.44;103849.63;5255325;28;20033;-75
2022/01/12 09:58:55;;;;;;;49.53;30.67;;;;;;;3.96;98.31;103846.50;5253850;28;20055;-75
2022/01/12 10:01:35;;;;;;;79.40;49.90;;;;;;;3.90;98.21;103845.31;5241975;28;20028;-76
2022/01/12 10:04:07;;;;;;;90.50;56.63;;;;;;;3.91;98.18;103856.16;5251450;28;20108;-77
2022/01/12 10:06:42;;;;;;;61.15;29.30;;;;;;;3.75;98.61;103867.09;5230566;28;20070;-75
2022/01/12 10:09:14;;;;;;;40.30;26.90;;;;;;;3.83;98.63;103877.22;5259088;28;20037;-75
2022/01/12 10:11:53;;;;;;;49.78;25.63;;;;;;;3.74;99.34;103881.88;5251508;28;20298;-78
2022/01/12 10:14:25;;;;;;;64.40;25.70;;;;;;;3.73;99.10;103885.63;5239698;28;20385;-78
2022/01/12 10:16:58;;;;;;;39.53;24.02;;;;;;;3.77;99.48;103881.53;5239414;28;20026;-80
2022/01/12 10:19:32;;;;;;;35.75;23.52;;;;;;;3.80;99.30;103875.69;5257418;28;20036;-79
2022/01/12 10:22:08;;;;;;;41.08;22.42;;;;;;;3.83;99.34;103875.34;5242146;28;20077;-77
2022/01/12 10:24:43;;;;;;;39.13;25.35;;;;;;;3.92;99.39;103877.06;5247670;28;20029;-81
2022/01/12 10:27:18;;;;;;;45.03;26.77;;;;;;;3.90;98.81;103873.63;5247865;28;20052;-80
2022/01/12 10:29:58;;;;;;;45.20;25.05;;;;;;;3.87;99.58;103873.97;5254046;28;20100;-78
2022/01/12 10:32:29;;;;;;;41.72;26.02;;;;;;;3.71;99.84;103860.25;5239846;28;20044;-75
2022/01/12 10:35:01;;;;;;;68.32;23.23;;;;;;;3.70;99.74;103858.53;5243691;28;20033;-74
2022/01/12 10:37:38;;;;;;;41.50;23.85;;;;;;;3.70;100.00;103858.53;5257559;28;20064;-73
2022/01/12 10:40:10;;;;;;;73.90;25.27;;;;;;;3.64;100.00;103854.56;5251415;28;20029;-72
2022/01/12 10:42:44;;;;;;;44.22;25.17;;;;;;;3.69;100.00;103862.31;5246117;28;20072;-73
2022/01/12 10:45:15;;;;;;;37.95;23.25;;;;;;;3.76;100.00;103867.94;5258835;28;20527;-74
2022/01/12 10:47:46;;;;;;;114.78;26.17;;;;;;;3.63;99.82;103868.44;5250606;28;20025;-73
2022/01/12 10:50:18;;;;;;;69.88;26.48;;;;;;;3.65;100.00;103864.50;5249408;28;20075;-72
2022/01/12 10:52:50;;;;;;;40.10;22.75;;;;;;;3.77;100.00;103870.53;5255978;28;20043;-72
2022/01/12 10:55:22;;;;;;;56.85;23.80;;;;;;;3.76;100.00;103867.94;5247030;28;20440;-74
2022/01/12 10:57:58;;;;;;;49.17;23.65;;;;;;;3.68;100.00;103872.44;5252572;28;20055;-73
2022/01/12 11:00:30;;;;;;;40.75;23.05;;;;;;;3.74;100.00;103870.88;5256427;28;20025;-72
2022/01/12 11:03:01;;;;;;;37.40;23.42;;;;;;;3.82;100.00;103879.13;5245837;28;20082;-72
2022/01/12 11:05:33;;;;;;;34.03;22.08;;;;;;;4.05;100.00;103883.94;5255954;28;20063;-72
2022/01/12 11:08:04;;;;;;;34.08;22.23;;;;;;;4.38;100.00;103883.91;5246960;28;20063;-80
2022/01/12 11:10:35;;;;;;;47.00;24.55;;;;;;;4.05;100.00;103886.69;5256398;28;20087;-80
2022/01/12 11:13:07;;;;;;;42.72;26.38;;;;;;;4.12;99.91;103866.59;5246356;28;20017;-76
2022/01/12 11:15:38;;;;;;;58.45;23.73;;;;;;;4.04;98.38;103873.97;5255159;28;20029;-75
2022/01/12 11:18:10;;;;;;;40.90;26.95;;;;;;;4.14;98.55;103880.16;5252476;28;20464;-74
2022/01/12 11:20:44;;;;;;;39.60;23.42;;;;;;;4.17;98.76;103877.06;5246653;28;20040;-74
2022/01/12 11:23:18;;;;;;;40.85;24.88;;;;;;;4.15;98.30;103870.88;5257780;28;20491;-74
2022/01/12 11:25:52;;;;;;;44.42;25.67;;;;;;;4.05;97.95;103875.69;5249033;28;20025;-74
2022/01/12 11:28:26;;;;;;;53.08;25.48;;;;;;;4.07;98.61;103885.47;5248447;28;20036;-74
2022/01/12 11:31:00;;;;;;;37.30;24.00;;;;;;;4.13;98.44;103890.28;5257932;28;20040;-77
2022/01/12 11:33:31;;;;;;;40.40;23.67;;;;;;;4.03;98.64;103888.75;5247009;28;20021;-75
2022/01/12 11:36:11;;;;;;;38.80;23.17;;;;;;;4.09;98.35;103888.94;5247520;28;20116;-73
2022/01/12 11:38:52;;;;;;;40.38;23.95;;;;;;;4.19;98.85;103885.97;5256381;28;20033;-72
2022/01/12 11:41:26;;;;;;;38.30;23.17;;;;;;;4.25;98.64;103890.81;5237099;28;20017;-74
2022/01/12 11:44:00;;;;;;;232.80;165.35;;;;;;;4.19;98.17;103896.13;5250377;28;20025;-74
2022/01/12 11:46:55;;;;;;;45.42;28.73;;;;;;;4.27;97.55;103886.00;5246544;28;20024;-75
2022/01/12 11:49:31;;;;;;;36.92;22.23;;;;;;;4.49;98.35;103878.03;5231649;28;20102;-77
2022/01/12 11:52:23;;;;;;;35.28;21.60;;;;;;;4.67;99.26;103875.94;5251889;28;20025;-83
2022/01/12 11:55:17;;;;;;;41.22;24.13;;;;;;;4.84;100.00;103863.00;5245401;28;20030;-78
2022/01/12 11:57:52;;;;;;;38.30;24.13;;;;;;;5.12;100.00;103868.03;5252490;28;20099;-77
2022/01/12 12:00:29;;;;;;;35.03;21.33;;;;;;;5.38;100.00;103870.47;5251568;28;20021;-78
2022/01/12 12:03:12;;;;;;;35.80;21.48;;;;;;;5.11;97.18;103864.41;5245360;28;20423;-79
2022/01/12 12:05:44;;;;;;;37.17;22.50;;;;;;;5.24;96.88;103880.38;5254100;28;20026;-79
2022/01/12 12:08:23;;;;;;;36.58;21.13;;;;;;;5.29;95.74;103883.44;5253016;28;20029;-75
2022/01/12 12:10:55;;;;;;;32.67;20.60;;;;;;;4.95;93.35;103876.34;5245379;28;20022;-74
2022/01/12 12:13:26;;;;;;;37.53;22.92;;;;;;;4.85;92.21;103881.19;5255536;28;20389;-75
2022/01/12 12:15:58;;;;;;;39.05;23.63;;;;;;;4.64;92.15;103880.94;5241867;28;20061;-75
2022/01/12 12:18:30;;;;;;;38.97;23.25;;;;;;;4.61;92.13;103879.41;5248544;28;20378;-72
2022/01/12 12:21:01;;;;;;;36.60;23.02;;;;;;;4.33;92.51;103879.78;5244367;28;20040;-72
2022/01/12 12:23:32;;;;;;;45.75;25.33;;;;;;;4.25;92.94;103887.19;5255169;28;20028;-72
2022/01/12 12:26:08;;;;;;;37.40;23.67;;;;;;;4.24;93.29;103888.22;5251800;28;20523;-73
2022/01/12 12:28:43;;;;;;;39.33;23.23;;;;;;;4.29;93.55;103875.66;5245120;28;20049;-73
2022/01/12 12:31:23;;;;;;;38.42;21.92;;;;;;;4.31;93.60;103883.75;5257001;28;20033;-73
2022/01/12 12:34:03;;;;;;;41.40;26.17;;;;;;;4.32;93.78;103877.22;5247684;28;20021;-73
2022/01/12 12:36:34;;;;;;;40.97;23.83;;;;;;;4.32;93.62;103878.09;5248822;28;20036;-74
2022/01/12 12:39:11;;;;;;;42.08;24.35;;;;;;;4.39;94.03;103874.63;5244877;28;20044;-74
2022/01/12 12:41:44;;;;;;;42.80;23.60;;;;;;;4.31;93.73;103873.59;5252852;28;20116;-73
2022/01/12 12:44:24;;;;;;;41.58;24.65;;;;;;;4.41;93.65;103870.69;5249347;28;20025;-74
2022/01/12 12:47:08;;;;;;;33.63;20.60;;;;;;;4.72;95.90;103869.91;5253885;28;20026;-78
2022/01/12 12:49:52;;;;;;;37.58;22.75;;;;;;;4.86;97.22;103855.44;5254937;28;20017;-73
2022/01/12 12:52:23;;;;;;;35.10;21.48;;;;;;;5.20;97.24;103851.50;5250915;28;20381;-72
2022/01/12 12:54:57;;;;;;;30.57;19.67;;;;;;;5.19;97.09;103847.88;5248588;28;20029;-71
2022/01/12 12:57:29;;;;;;;38.53;24.85;;;;;;;4.90;95.02;103840.28;5254999;28;20303;-70
2022/01/12 13:00:16;;;;;;;43.63;26.17;;;;;;;4.93;93.04;103844.56;5254246;28;20029;-71
2022/01/12 13:02:50;;;;;;;38.30;23.83;;;;;;;4.75;92.38;103847.56;5247219;28;20041;-70
2022/01/12 13:05:24;;;;;;;40.10;24.92;;;;;;;4.58;92.57;103846.78;5258538;28;20074;-72
2022/01/12 13:07:56;;;;;;;38.57;24.27;;;;;;;4.63;93.41;103836.09;5252840;28;20024;-71
2022/01/12 13:10:30;;;;;;;39.63;23.05;;;;;;;4.70;93.42;103839.84;5250423;28;20025;-71
2022/01/12 13:13:04;;;;;;;40.20;24.10;;;;;;;4.64;93.17;103851.56;5260070;28;20028;-71
2022/01/12 13:15:41;;;;;;;38.90;25.42;;;;;;;4.65;92.56;103850.50;5250587;28;20027;-68
2022/01/12 13:18:18;;;;;;;36.17;22.63;;;;;;;4.68;92.29;103852.94;5255095;28;20029;-68
2022/01/12 13:21:09;;;;;;;47.30;28.05;;;;;;;4.64;91.62;103862.53;5247795;28;20384;-72
2022/01/12 13:23:46;;;;;;;40.90;24.42;;;;;;;4.62;91.45;103864.59;5249368;28;20018;-71
2022/01/12 13:26:24;;;;;;;41.22;22.80;;;;;;;4.58;92.17;103858.63;5256223;28;20060;-72
2022/01/12 13:28:55;;;;;;;46.35;26.90;;;;;;;4.67;92.03;103862.19;5262532;28;20029;-71
2022/01/12 13:31:27;;;;;;;44.65;24.98;;;;;;;4.66;92.35;103865.13;5248679;28;20032;-71
2022/01/12 13:34:00;;;;;;;37.33;24.27;;;;;;;4.66;91.37;103855.00;5254048;28;20021;-72
2022/01/12 13:36:33;;;;;;;35.00;23.52;;;;;;;4.61;91.43;103862.06;5252155;28;20059;-72
2022/01/12 13:39:11;;;;;;;34.17;21.25;;;;;;;4.68;91.81;103858.41;5246833;28;20038;-72
2022/01/12 13:41:46;;;;;;;33.95;21.30;;;;;;;4.53;91.61;103861.03;5238344;28;20056;-73
2022/01/12 13:44:23;;;;;;;37.97;22.13;;;;;;;4.57;91.47;103867.03;5250762;28;20037;-72
2022/01/12 13:47:21;;;;;;;40.28;22.83;;;;;;;4.55;91.94;103874.59;5258679;28;20025;-72
2022/01/12 13:50:26;;;;;;;38.75;21.80;;;;;;;4.43;92.09;103867.78;5251847;28;20411;-72
2022/01/12 13:52:58;;;;;;;37.65;22.17;;;;;;;4.23;92.72;103870.88;5246415;28;20041;-73
2022/01/12 13:55:30;;;;;;;34.22;20.88;;;;;;;4.01;91.95;103872.44;5247345;28;20027;-71
2022/01/12 13:58:11;;;;;;;35.70;21.58;;;;;;;4.09;92.47;103879.81;5240433;28;20049;-72
2022/01/12 14:00:42;;;;;;;39.78;22.15;;;;;;;4.02;92.24;103867.81;5252909;28;20027;-72
2022/01/12 14:03:22;;;;;;;34.13;21.55;;;;;;;4.22;92.59;103863.69;5246790;28;20028;-72
2022/01/12 14:05:59;;;;;;;37.38;23.02;;;;;;;3.96;91.88;103854.75;5253327;28;20030;-70
2022/01/12 14:08:41;;;;;;;36.45;23.10;;;;;;;4.09;92.69;103855.97;5256605;28;20028;-69
2022/01/12 14:11:12;;;;;;;35.60;21.83;;;;;;;4.23;92.23;103865.38;5247213;28;20039;-73
2022/01/12 14:13:44;;;;;;;36.95;22.95;;;;;;;4.26;91.34;103865.03;5254617;28;20013;-72
2022/01/12 14:16:16;;;;;;;35.85;21.85;;;;;;;4.29;91.48;103867.41;5252832;28;20104;-74
2022/01/12 14:18:57;;;;;;;34.00;20.77;;;;;;;4.38;91.35;103865.53;5246747;28;20029;-74
2022/01/12 14:21:28;;;;;;;30.75;21.63;;;;;;;4.41;91.28;103865.19;5254522;28;20082;-71
2022/01/12 14:24:00;;;;;;;37.08;23.48;;;;;;;4.44;91.21;103873.06;5245587;28;20465;-71
2022/01/12 14:26:38;;;;;;;38.42;22.95;;;;;;;4.46;91.22;103872.91;5256980;28;20025;-70
2022/01/12 14:29:10;;;;;;;36.17;22.73;;;;;;;4.45;91.00;103879.41;5246073;28;20016;-71
2022/01/12 14:31:43;;;;;;;38.53;26.10;;;;;;;4.49;91.23;103886.28;5252661;28;20036;-71
2022/01/12 14:34:14;;;;;;;39.10;24.65;;;;;;;4.51;90.84;103890.59;5250741;28;20052;-73
2022/01/12 14:36:45;;;;;;;35.75;23.50;;;;;;;4.55;91.67;103888.31;5254465;28;20025;-70
2022/01/12 14:39:16;;;;;;;37.58;21.98;;;;;;;4.62;91.77;103881.09;5246398;28;20547;-73
2022/01/12 14:41:48;;;;;;;37.53;22.77;;;;;;;4.35;90.86;103894.22;5252209;28;20028;-76
2022/01/12 14:44:24;;;;;;;37.53;24.25;;;;;;;4.40;91.94;103887.31;5238925;28;20034;-77
2022/01/12 14:46:55;;;;;;;41.97;26.30;;;;;;;4.47;92.02;103878.22;5255764;28;20076;-75
2022/01/12 14:49:29;;;;;;;41.90;25.75;;;;;;;4.52;91.65;103880.44;5238675;28;20057;-73
2022/01/12 14:52:02;;;;;;;39.92;23.10;;;;;;;4.46;91.56;103876.50;5236423;28;20048;-72
2022/01/12 14:54:33;;;;;;;42.13;24.80;;;;;;;4.59;91.40;103875.97;5242424;28;20073;-76
2022/01/12 14:57:05;;;;;;;39.80;25.17;;;;;;;4.61;91.42;103878.53;5257425;28;20057;-73
2022/01/12 14:59:36;;;;;;;42.13;26.25;;;;;;;4.57;90.42;103878.03;5248946;28;20059;-72
2022/01/12 15:02:07;;;;;;;48.10;27.42;;;;;;;4.53;90.99;103879.44;5250179;28;20033;-71
2022/01/12 15:04:38;;;;;;;45.33;25.60;;;;;;;4.61;91.36;103879.41;5242139;28;20432;-74
2022/01/12 15:07:10;;;;;;;45.53;26.27;;;;;;;4.56;91.12;103881.81;5246798;28;20460;-74
2022/01/12 15:09:42;;;;;;;40.50;24.67;;;;;;;4.61;90.72;103876.66;5254192;28;20013;-75
2022/01/12 15:12:27;;;;;;;37.05;24.50;;;;;;;4.54;90.17;103879.22;5233651;28;20037;-74
2022/01/12 15:15:00;;;;;;;40.47;24.48;;;;;;;4.44;90.19;103867.56;5254002;28;20018;-75
2022/01/12 15:17:31;;;;;;;39.10;23.90;;;;;;;4.39;90.66;103866.38;5246896;28;20357;-73
2022/01/12 15:20:08;;;;;;;42.75;25.52;;;;;;;4.45;90.74;103854.69;5251795;28;20033;-76
2022/01/12 15:22:42;;;;;;;40.85;25.60;;;;;;;4.54;90.87;103862.75;5233195;28;20041;-78
2022/01/12 15:25:18;;;;;;;37.88;24.13;;;;;;;4.45;90.42;103858.31;5244924;28;20550;-79
2022/01/12 15:27:49;;;;;;;36.90;23.60;;;;;;;4.29;90.26;103864.66;5253368;28;20104;-75
2022/01/12 15:30:22;;;;;;;38.97;23.95;;;;;;;4.33;91.01;103859.72;5230355;28;20120;-75
2022/01/12 15:32:53;;;;;;;33.20;21.73;;;;;;;4.16;90.99;103861.59;5241206;28;20033;-75
2022/01/12 15:35:25;;;;;;;37.88;21.90;;;;;;;4.33;90.23;103862.44;5256114;28;20020;-70
2022/01/12 15:37:58;;;;;;;36.63;22.42;;;;;;;4.37;89.87;103866.56;5250476;28;20037;-71
2022/01/12 15:40:30;;;;;;;33.00;21.63;;;;;;;4.30;90.67;103862.81;5245087;28;20460;-74
2022/01/12 15:43:02;;;;;;;36.80;21.83;;;;;;;4.34;90.38;103878.75;5256637;28;20029;-74
2022/01/12 15:45:34;;;;;;;34.65;21.65;;;;;;;4.11;89.61;103888.72;5233181;28;20020;-70
2022/01/12 15:48:09;;;;;;;36.25;21.70;;;;;;;4.22;90.30;103884.78;5250657;28;20108;-71
2022/01/12 15:50:40;;;;;;;39.08;23.35;;;;;;;4.26;90.44;103888.91;5235533;28;20100;-72
2022/01/12 15:53:11;;;;;;;43.00;25.23;;;;;;;4.22;90.03;103896.66;5252388;28;20025;-72
2022/01/12 15:55:43;;;;;;;40.13;23.42;;;;;;;4.19;91.01;103896.97;5243204;28;20484;-71
2022/01/12 15:58:15;;;;;;;41.90;25.42;;;;;;;4.39;91.66;103891.13;5244531;28;20056;-69
2022/01/12 16:00:46;;;;;;;42.35;23.42;;;;;;;4.35;90.89;103891.47;5247777;28;20026;-70
2022/01/12 16:03:17;;;;;;;41.45;25.13;;;;;;;4.35;90.92;103891.47;5257163;28;20100;-69
2022/01/12 16:05:50;;;;;;;38.15;24.27;;;;;;;4.45;90.83;103895.91;5248904;28;20021;-69
2022/01/12 16:08:22;;;;;;;34.90;23.80;;;;;;;4.49;90.36;103892.63;5249243;28;20458;-69
2022/01/12 16:10:54;;;;;;;40.60;24.77;;;;;;;4.48;90.50;103896.44;5236111;28;20018;-69
2022/01/12 16:13:28;;;;;;;47.58;30.63;;;;;;;4.43;90.72;103895.25;5242913;28;20459;-68
2022/01/12 16:15:59;;;;;;;45.28;28.00;;;;;;;4.37;90.72;103905.03;5231425;28;20050;-69
2022/01/12 16:18:31;;;;;;;45.10;27.88;;;;;;;4.39;91.02;103913.97;5246832;28;20068;-69
2022/01/12 16:21:03;;;;;;;44.50;26.40;;;;;;;4.30;91.17;103904.88;5260086;28;20136;-70
2022/01/12 16:23:35;;;;;;;42.97;24.83;;;;;;;4.39;91.45;103915.84;5251325;28;20021;-69
2022/01/12 16:26:06;;;;;;;45.95;26.08;;;;;;;4.35;91.46;103907.09;5254283;28;20025;-71
2022/01/12 16:28:40;;;;;;;44.45;25.58;;;;;;;4.47;90.85;103910.34;5259133;28;20029;-72
2022/01/12 16:31:20;;;;;;;48.10;30.58;;;;;;;4.43;90.62;103912.59;5246188;28;20017;-72
2022/01/12 16:33:52;;;;;;;41.60;25.33;;;;;;;4.39;90.16;103924.94;5255689;28;20039;-68
2022/01/12 16:36:25;;;;;;;41.58;25.92;;;;;;;4.33;90.00;103928.41;5258080;28;20079;-69
2022/01/12 16:38:57;;;;;;;40.05;24.98;;;;;;;4.24;90.20;103933.03;5248263;28;20520;-68
2022/01/12 16:41:29;;;;;;;41.50;23.00;;;;;;;4.25;90.53;103929.25;5258683;28;20052;-73
2022/01/12 16:44:00;;;;;;;36.92;24.35;;;;;;;3.98;90.19;103921.34;5238703;28;20057;-68
2022/01/12 16:46:32;;;;;;;39.25;25.23;;;;;;;4.02;91.30;103920.84;5235662;28;20022;-67
2022/01/12 16:49:04;;;;;;;36.15;24.30;;;;;;;3.94;91.03;103929.09;5238843;28;20018;-68
2022/01/12 16:51:35;;;;;;;47.95;25.88;;;;;;;3.96;90.63;103940.72;5258492;28;20018;-67
2022/01/12 16:54:06;;;;;;;39.70;26.27;;;;;;;3.90;91.23;103939.53;5247594;28;20051;-67
2022/01/12 16:56:38;;;;;;;68.55;45.28;;;;;;;4.02;91.78;103944.72;5241411;28;20033;-67
2022/01/12 16:59:09;;;;;;;50.67;30.95;;;;;;;4.04;91.66;103949.00;5260450;28;20408;-67
2022/01/12 17:01:40;;;;;;;47.63;28.33;;;;;;;4.07;92.07;103953.31;5256385;28;20140;-68
2022/01/12 17:04:12;;;;;;;57.45;33.95;;;;;;;4.20;91.60;103959.13;5246375;28;20029;-69
2022/01/12 17:06:43;;;;;;;44.40;28.88;;;;;;;4.19;90.46;103956.56;5240920;28;20022;-68
2022/01/12 17:09:15;;;;;;;43.97;26.83;;;;;;;4.20;90.50;103950.03;5259272;28;20026;-68
2022/01/12 17:11:46;;;;;;;40.28;24.65;;;;;;;4.30;90.69;103956.22;5250937;28;20025;-68
2022/01/12 17:14:18;;;;;;;37.85;26.02;;;;;;;4.21;90.26;103960.00;5251849;28;20025;-68
2022/01/12 17:16:50;;;;;;;40.63;24.23;;;;;;;4.14;89.67;103968.03;5251159;28;20083;-66
2022/01/12 17:19:24;;;;;;;40.67;26.10;;;;;;;4.07;89.90;103965.16;5251636;28;20050;-67
2022/01/12 17:21:56;;;;;;;39.67;24.17;;;;;;;3.86;90.83;103968.38;5245462;28;20576;-68
2022/01/12 17:25:03;;;;;;;40.97;26.00;;;;;;;4.06;91.34;103965.31;5250528;28;20028;-68
2022/01/12 17:27:40;;;;;;;41.83;25.15;;;;;;;4.13;90.45;103969.94;5244910;28;20558;-67
2022/01/12 17:30:11;;;;;;;42.40;27.00;;;;;;;4.10;90.34;103963.94;5251494;28;20041;-68
